Time;durP1;ratioP1;P1;durP2;ratioP2;P2;SDS_P1;SDS_P2;PMS_P1;PMS_P2;Temp;Humidity;BMP_temperature;BMP_pressure;BME280_temperature;BME280_humidity;BME280_pressure;Samples;Min_cycle;Max_cycle;Signal;HPM_P1;HPM_P2
2021/12/07 00:01:32;;;;;;;8.30;7.50;;;;;;;2.53;84.17;94896.66;4386070;32;20220;-59
2021/12/07 00:03:57;;;;;;;8.57;7.87;;;;;;;2.26;85.28;94891.53;4384575;32;20284;-59
2021/12/07 00:06:23;;;;;;;8.90;8.10;;;;;;;1.91;86.32;94893.87;4381795;32;20271;-59
2021/12/07 00:08:54;;;;;;;8.90;8.10;;;;;;;2.03;86.70;94892.69;4382656;32;20192;-59
2021/12/07 00:11:20;;;;;;;8.20;7.40;;;;;;;1.85;87.05;94885.22;4381045;32;20173;-59
2021/12/07 00:13:45;;;;;;;8.40;7.60;;;;;;;2.12;86.63;94894.81;4381560;32;20273;-59
2021/12/07 00:16:11;;;;;;;8.40;7.60;;;;;;;1.97;86.64;94904.13;4378878;32;20268;-60
2021/12/07 00:18:38;;;;;;;8.53;7.80;;;;;;;1.98;87.05;94899.69;4380833;32;20204;-59
2021/12/07 00:21:05;;;;;;;7.73;7.00;;;;;;;1.99;86.93;94886.37;4374571;32;20263;-59
2021/12/07 00:23:31;;;;;;;7.93;7.20;;;;;;;1.88;86.82;94892.53;4378446;32;20299;-59
2021/12/07 00:25:56;;;;;;;8.53;7.73;;;;;;;1.62;87.77;94880.31;4374220;32;20264;-61
2021/12/07 00:28:23;;;;;;;7.80;7.20;;;;;;;1.46;89.18;94883.78;4380230;32;20334;-61
2021/12/07 00:30:50;;;;;;;8.00;7.30;;;;;;;1.62;88.57;94890.75;4373677;32;20204;-59
2021/12/07 00:35:53;;;;;;;8.50;7.80;;;;;;;2.06;86.17;94881.72;4382607;32;20358;-59
2021/12/07 00:38:22;;;;;;;7.70;6.80;;;;;;;2.04;85.82;94878.56;4383910;32;20333;-59
2021/12/07 00:40:48;;;;;;;8.60;7.90;;;;;;;2.18;85.48;94873.69;4381134;32;20328;-60
2021/12/07 00:43:14;;;;;;;7.40;6.67;;;;;;;2.13;85.29;94868.41;4384877;32;20311;-59
2021/12/07 00:45:44;;;;;;;7.60;7.00;;;;;;;2.32;84.75;94864.34;4389032;32;20276;-59
2021/12/07 00:48:10;;;;;;;7.53;6.83;;;;;;;2.13;84.84;94857.16;4379333;32;20361;-59
2021/12/07 00:50:36;;;;;;;6.90;6.20;;;;;;;1.98;85.59;94874.31;4386306;32;20288;-59
2021/12/07 00:53:05;;;;;;;6.50;6.00;;;;;;;2.00;85.55;94850.53;4378488;32;20267;-62
2021/12/07 00:55:34;;;;;;;6.33;5.83;;;;;;;1.89;85.81;94860.12;4384801;32;20295;-62
2021/12/07 00:58:05;;;;;;;6.47;5.97;;;;;;;2.00;85.79;94848.72;4387130;32;20280;-60
2021/12/07 01:00:31;;;;;;;5.77;5.27;;;;;;;2.25;84.62;94857.78;4382941;32;20327;-58
2021/12/07 01:02:57;;;;;;;5.97;5.47;;;;;;;2.33;83.79;94855.44;4383800;32;20346;-59
2021/12/07 01:05:28;;;;;;;5.90;5.40;;;;;;;2.17;83.95;94858.22;4378882;32;20195;-59
2021/12/07 01:26:46;;;;;;;3.70;3.50;;;;;;;2.00;82.86;94840.87;4374931;32;20295;-60
2021/12/07 01:29:11;;;;;;;3.50;3.30;;;;;;;2.27;81.46;94834.75;4388207;32;20268;-59
2021/12/07 01:31:53;;;;;;;3.37;3.07;;;;;;;2.23;81.59;94834.47;4378002;32;20303;-59
2021/12/07 01:52:48;;;;;;;2.00;1.80;;;;;;;2.38;79.79;94831.16;4379101;32;20328;-59
2021/12/07 02:00:33;;;;;;;1.83;1.73;;;;;;;2.63;78.26;94839.13;4381487;32;20291;-59
2021/12/07 02:02:59;;;;;;;1.70;1.60;;;;;;;2.23;79.23;94834.47;4387348;32;20285;-59
2021/12/07 02:05:25;;;;;;;1.70;1.60;;;;;;;2.57;78.83;94821.03;4388947;32;20287;-59
2021/12/07 02:07:50;;;;;;;1.77;1.67;;;;;;;2.39;79.01;94824.88;4385335;32;20185;-59
2021/12/07 02:10:21;;;;;;;1.63;1.53;;;;;;;2.29;79.04;94824.81;4389283;32;20189;-59
2021/12/07 02:12:48;;;;;;;1.57;1.47;;;;;;;2.14;79.95;94822.91;4380106;32;20181;-59
2021/12/07 02:15:24;;;;;;;1.20;1.20;;;;;;;1.93;80.98;94823.81;4387538;32;20291;-60
2021/12/07 02:17:51;;;;;;;1.20;1.13;;;;;;;2.08;80.70;94823.13;4388386;32;20313;-60
2021/12/07 02:20:18;;;;;;;1.37;1.30;;;;;;;1.96;80.59;94812.84;4377214;32;20272;-60
2021/12/07 02:22:45;;;;;;;1.17;1.07;;;;;;;2.12;80.24;94821.56;4391717;32;20268;-60
2021/12/07 02:25:12;;;;;;;1.77;1.33;;;;;;;2.10;79.76;94823.66;4371411;32;20281;-59
2021/12/07 02:27:38;;;;;;;1.30;1.20;;;;;;;2.13;79.93;94802.22;4381892;32;20265;-59
2021/12/07 02:30:07;;;;;;;1.30;1.30;;;;;;;2.17;79.63;94811.94;4381542;32;20268;-59
2021/12/07 02:32:32;;;;;;;1.37;1.27;;;;;;;2.11;80.21;94809.53;4384476;32;20320;-59
2021/12/07 02:34:59;;;;;;;1.40;1.30;;;;;;;1.94;79.94;94810.47;4380455;32;20277;-59
2021/12/07 02:37:30;;;;;;;1.00;1.00;;;;;;;2.35;79.10;94789.78;4383029;32;20196;-60
2021/12/07 02:39:56;;;;;;;1.37;1.27;;;;;;;2.12;79.62;94798.03;4388939;32;20289;-59
2021/12/07 02:42:23;;;;;;;1.10;1.10;;;;;;;1.98;80.67;94793.25;4387547;32;20315;-59
2021/12/07 02:44:48;;;;;;;1.27;1.17;;;;;;;2.10;80.24;94792.25;4377562;32;20291;-59
2021/12/07 02:47:13;;;;;;;0.90;0.90;;;;;;;1.87;80.78;94783.75;4387033;32;20276;-59
2021/12/07 02:49:39;;;;;;;2.40;1.20;;;;;;;2.18;80.29;94782.13;4380398;32;20223;-59
2021/12/07 02:52:06;;;;;;;1.10;1.10;;;;;;;1.99;80.72;94781.75;4373989;32;20184;-59
2021/12/07 02:54:33;;;;;;;0.97;0.97;;;;;;;2.16;80.35;94788.63;4377775;32;20200;-59
2021/12/07 02:56:59;;;;;;;1.07;1.07;;;;;;;2.06;80.38;94787.56;4386623;32;20321;-59
2021/12/07 02:59:27;;;;;;;1.20;1.20;;;;;;;2.29;79.90;94793.41;4382580;32;20288;-59
2021/12/07 03:02:00;;;;;;;1.00;1.00;;;;;;;2.26;79.79;94786.88;4381562;32;20349;-59
2021/12/07 03:04:32;;;;;;;1.00;1.00;;;;;;;2.24;79.13;94788.16;4383409;32;20302;-59
2021/12/07 03:07:16;;;;;;;1.27;1.17;;;;;;;2.41;78.58;94788.78;4390417;32;20302;-59
2021/12/07 03:28:26;;;;;;;1.30;1.20;;;;;;;1.87;81.66;94817.75;4384230;32;20284;-60
2021/12/07 03:30:52;;;;;;;1.10;1.00;;;;;;;2.13;81.99;94817.91;4389832;32;20376;-60
2021/12/07 03:33:17;;;;;;;1.40;1.30;;;;;;;2.39;81.34;94823.03;4382891;32;20288;-60
2021/12/07 03:35:42;;;;;;;1.80;1.70;;;;;;;2.40;82.44;94818.59;4387255;32;20242;-62
2021/12/07 03:38:09;;;;;;;1.30;1.30;;;;;;;2.26;83.42;94822.72;4378490;32;20188;-60
2021/12/07 03:40:36;;;;;;;1.77;1.67;;;;;;;2.27;84.72;94834.75;4388067;32;20195;-59
2021/12/07 03:43:03;;;;;;;2.00;1.90;;;;;;;1.89;86.99;94839.19;4382625;32;20391;-59
2021/12/07 03:45:29;;;;;;;2.27;1.50;;;;;;;1.92;87.53;94830.88;4375813;32;20296;-59
2021/12/07 03:47:54;;;;;;;1.80;1.70;;;;;;;2.01;87.83;94836.44;4377649;32;20292;-59
2021/12/07 03:50:21;;;;;;;1.77;1.67;;;;;;;1.79;89.37;94833.13;4388872;32;20355;-59
2021/12/07 03:52:49;;;;;;;1.43;1.33;;;;;;;1.88;89.35;94832.41;4373427;32;20204;-60
2021/12/07 03:55:14;;;;;;;1.53;1.43;;;;;;;2.06;88.76;94818.94;4383472;32;20296;-60
2021/12/07 03:57:40;;;;;;;1.70;1.57;;;;;;;2.13;88.98;94815.31;4373823;32;20273;-59
2021/12/07 04:00:12;;;;;;;2.10;2.00;;;;;;;1.89;88.78;94828.75;4381374;32;20196;-59
2021/12/07 04:02:40;;;;;;;1.80;1.70;;;;;;;1.94;89.85;94820.16;4374287;32;20176;-59
2021/12/07 04:05:18;;;;;;;2.20;2.10;;;;;;;2.12;88.81;94818.94;4386537;32;20276;-59
2021/12/07 04:07:44;;;;;;;1.90;1.80;;;;;;;2.08;88.65;94827.31;4385886;32;20375;-60
2021/12/07 04:10:13;;;;;;;2.33;2.20;;;;;;;2.07;88.67;94827.59;4385298;32;20325;-59
2021/12/07 04:12:39;;;;;;;1.90;1.80;;;;;;;2.14;89.20;94820.28;4376402;32;20210;-59
2021/12/07 04:15:08;;;;;;;1.77;1.67;;;;;;;2.03;89.25;94829.12;4370518;32;20295;-59
2021/12/07 04:17:34;;;;;;;1.87;1.77;;;;;;;2.31;87.93;94812.25;4384967;32;20300;-59
2021/12/07 04:20:00;;;;;;;2.33;1.53;;;;;;;2.44;87.57;94819.69;4380548;32;20265;-59
2021/12/07 04:22:26;;;;;;;1.90;1.80;;;;;;;2.38;87.00;94816.22;4384602;32;20233;-59
2021/12/07 04:24:51;;;;;;;1.80;1.70;;;;;;;2.27;88.32;94819.84;4380174;32;20181;-59
2021/12/07 04:27:17;;;;;;;2.03;1.60;;;;;;;2.20;88.77;94818.50;4383010;32;20204;-59
2021/12/07 04:29:42;;;;;;;1.57;1.47;;;;;;;2.01;88.72;94815.50;4378060;32;20207;-63
2021/12/07 04:32:08;;;;;;;1.43;1.33;;;;;;;2.36;88.20;94812.28;4392413;32;20195;-59
2021/12/07 04:34:33;;;;;;;1.50;1.40;;;;;;;2.19;88.53;94827.38;4383217;32;20214;-59
2021/12/07 04:36:59;;;;;;;1.23;1.23;;;;;;;2.17;88.99;94819.00;4385457;32;20193;-60
2021/12/07 04:39:24;;;;;;;1.50;1.40;;;;;;;2.32;88.54;94812.00;4379331;32;20181;-59
2021/12/07 04:41:51;;;;;;;1.33;1.23;;;;;;;2.12;89.19;94816.34;4384438;32;20199;-59
2021/12/07 04:44:17;;;;;;;1.00;1.00;;;;;;;1.87;90.35;94828.19;4384026;32;20199;-59
2021/12/07 04:46:55;;;;;;;0.70;0.70;;;;;;;2.04;90.16;94820.22;4391181;32;20295;-63
2021/12/07 05:00:15;;;;;;;0.67;0.67;;;;;;;1.61;94.16;94827.25;4388407;32;20294;-60
2021/12/07 05:02:44;;;;;;;0.70;0.67;;;;;;;1.84;94.15;94831.34;4387736;32;20284;-59
2021/12/07 05:05:11;;;;;;;0.70;0.70;;;;;;;1.76;94.13;94839.63;4393866;32;20276;-59
2021/12/07 05:07:42;;;;;;;0.70;0.70;;;;;;;1.69;94.39;94839.84;4384842;32;20324;-59
2021/12/07 05:12:44;;;;;;;0.60;0.60;;;;;;;1.86;94.48;94839.72;4386919;32;20281;-59
2021/12/07 05:15:24;;;;;;;0.40;0.40;;;;;;;2.07;93.83;94835.44;4401351;32;20252;-59
2021/12/07 05:39:06;;;;;;;0.57;0.57;;;;;;;2.21;92.81;94867.16;4392938;32;20295;-59
2021/12/07 05:41:32;;;;;;;0.50;0.50;;;;;;;2.10;93.17;94878.56;4391411;32;20343;-59
2021/12/07 05:44:03;;;;;;;0.87;0.87;;;;;;;2.17;93.44;94866.09;4385647;32;20284;-59
2021/12/07 05:46:28;;;;;;;0.90;0.90;;;;;;;2.04;93.67;94873.34;4381944;32;20351;-60
2021/12/07 05:48:53;;;;;;;1.70;0.80;;;;;;;1.95;94.49;94871.41;4390029;32;20297;-60
2021/12/07 05:51:19;;;;;;;1.60;0.93;;;;;;;1.97;94.70;94871.97;4380101;32;20208;-60
2021/12/07 05:53:44;;;;;;;2.40;0.90;;;;;;;2.13;94.01;94880.69;4380065;32;20205;-60
2021/12/07 05:56:10;;;;;;;0.83;0.83;;;;;;;2.11;94.27;94873.09;4386445;32;20196;-60
2021/12/07 05:58:35;;;;;;;1.57;1.00;;;;;;;2.11;94.15;94874.94;4384887;32;20188;-59
2021/12/07 06:01:01;;;;;;;0.80;0.80;;;;;;;2.08;94.37;94874.38;4388145;32;20212;-59
2021/12/07 06:03:27;;;;;;;2.03;0.83;;;;;;;2.24;93.79;94877.13;4383053;32;20204;-59
2021/12/07 06:05:53;;;;;;;1.17;1.07;;;;;;;2.06;94.30;94876.50;4379048;32;20259;-59
2021/12/07 06:08:19;;;;;;;1.57;0.83;;;;;;;2.16;94.48;94874.97;4377045;32;20195;-59
2021/12/07 06:10:45;;;;;;;1.53;1.10;;;;;;;2.08;93.87;94874.38;4378895;32;20348;-59
2021/12/07 06:13:10;;;;;;;0.90;0.90;;;;;;;2.16;93.96;94875.75;4381949;32;20223;-59
2021/12/07 06:15:38;;;;;;;1.03;0.90;;;;;;;2.29;92.89;94874.53;4387239;32;20188;-59
2021/12/07 06:18:04;;;;;;;0.73;0.73;;;;;;;2.38;92.87;94870.41;4385411;32;20204;-59
2021/12/07 06:20:30;;;;;;;0.70;0.70;;;;;;;2.49;91.77;94889.59;4381558;32;20284;-59
2021/12/07 06:22:55;;;;;;;2.17;1.00;;;;;;;2.44;91.83;94887.72;4383227;32;20296;-60
2021/12/07 06:25:21;;;;;;;0.80;0.80;;;;;;;2.27;92.26;94881.88;4384346;32;20185;-60
2021/12/07 06:27:47;;;;;;;0.80;0.80;;;;;;;2.29;92.70;94890.22;4380718;32;20249;-60
2021/12/07 06:30:13;;;;;;;0.90;0.90;;;;;;;2.11;92.95;94888.00;4373469;32;20203;-59
2021/12/07 06:32:39;;;;;;;0.73;0.73;;;;;;;2.28;92.30;94894.69;4386097;32;20180;-60
2021/12/07 06:35:06;;;;;;;0.70;0.70;;;;;;;2.38;92.13;94889.50;4379199;32;20285;-60
2021/12/07 06:37:32;;;;;;;0.70;0.70;;;;;;;2.39;91.77;94911.25;4376360;32;20224;-60
2021/12/07 06:39:57;;;;;;;0.80;0.80;;;;;;;2.31;91.64;94907.25;4382717;32;20320;-60
2021/12/07 06:42:22;;;;;;;0.67;0.67;;;;;;;2.53;91.30;94907.13;4382407;32;20288;-60
2021/12/07 06:44:48;;;;;;;3.97;0.70;;;;;;;2.59;90.79;94905.34;4387357;32;20184;-60
2021/12/07 06:47:13;;;;;;;1.70;1.13;;;;;;;2.45;91.13;94918.09;4386296;32;20192;-61
2021/12/07 06:49:39;;;;;;;1.53;1.00;;;;;;;2.49;91.45;94921.78;4389024;32;20207;-60
2021/12/07 06:52:05;;;;;;;1.37;0.97;;;;;;;2.52;91.16;94921.25;4380629;32;20196;-60
2021/12/07 06:54:31;;;;;;;1.07;1.07;;;;;;;2.39;91.65;94926.94;4381081;32;20191;-60
2021/12/07 06:56:56;;;;;;;1.73;1.20;;;;;;;2.55;90.74;94931.22;4384813;32;20314;-60
2021/12/07 06:59:22;;;;;;;1.37;1.07;;;;;;;2.54;90.84;94934.09;4380548;32;20212;-61
2021/12/07 07:01:48;;;;;;;1.17;1.17;;;;;;;2.55;90.93;94936.47;4388949;32;20198;-61
2021/12/07 07:04:14;;;;;;;1.30;1.30;;;;;;;2.59;90.52;94927.06;4378839;32;20266;-61
2021/12/07 07:06:41;;;;;;;2.77;1.40;;;;;;;2.42;91.17;94929.84;4381650;32;20203;-61
2021/12/07 07:09:07;;;;;;;1.37;1.27;;;;;;;2.57;90.68;94944.84;4385308;32;20296;-61
2021/12/07 07:11:33;;;;;;;1.57;1.20;;;;;;;2.49;91.24;94953.19;4387466;32;20363;-61
2021/12/07 07:14:00;;;;;;;1.93;1.33;;;;;;;2.53;90.98;94943.78;4390787;32;20168;-61
2021/12/07 07:16:26;;;;;;;1.43;1.33;;;;;;;2.63;90.22;94951.72;4384015;32;20303;-60
2021/12/07 07:18:51;;;;;;;1.37;1.27;;;;;;;2.58;90.98;94956.91;4380778;32;20316;-61
2021/12/07 07:21:16;;;;;;;2.30;1.40;;;;;;;2.60;90.76;94959.28;4386423;32;20180;-61
2021/12/07 07:23:42;;;;;;;1.20;1.20;;;;;;;2.65;90.43;94962.72;4387307;32;20229;-60
2021/12/07 07:26:07;;;;;;;38.30;4.97;;;;;;;2.74;89.92;94969.06;4378296;32;20184;-52
2021/12/07 07:28:34;;;;;;;12.83;2.03;;;;;;;6.38;100.00;94941.97;4376363;32;20284;-52
2021/12/07 07:31:02;;;;;;;2.73;1.20;;;;;;;7.75;96.36;94959.00;4383113;32;20189;-54
2021/12/07 07:33:27;;;;;;;4.77;1.13;;;;;;;8.59;80.28;94960.69;4386510;32;20359;-53
2021/12/07 07:35:53;;;;;;;1.73;1.03;;;;;;;9.27;70.58;94957.41;4383064;32;20326;-54
2021/12/07 07:38:20;;;;;;;1.23;0.90;;;;;;;10.18;68.27;94959.25;4386164;32;20246;-53
2021/12/07 07:40:46;;;;;;;1.27;0.77;;;;;;;10.78;64.40;94972.22;4377577;32;20268;-54
2021/12/07 07:43:13;;;;;;;1.07;0.80;;;;;;;10.96;61.69;94973.88;4385438;32;20370;-54
2021/12/07 07:45:39;;;;;;;0.80;0.80;;;;;;;11.38;59.93;94979.72;4374763;32;20316;-53
2021/12/07 07:48:04;;;;;;;1.43;0.80;;;;;;;11.37;58.82;94981.59;4392525;32;20199;-52
2021/12/07 07:50:30;;;;;;;1.33;0.70;;;;;;;10.86;59.38;94984.72;4373218;32;20193;-53
2021/12/07 07:52:56;;;;;;;0.73;0.60;;;;;;;11.11;58.66;94991.28;4382035;32;20215;-54
2021/12/07 07:55:22;;;;;;;0.80;0.80;;;;;;;11.18;57.89;94995.09;4378564;32;20211;-51
2021/12/07 07:57:47;;;;;;;0.83;0.70;;;;;;;11.05;57.18;94998.59;4383562;32;20184;-52
2021/12/07 08:00:16;;;;;;;0.60;0.60;;;;;;;11.25;57.19;95002.59;4377779;32;20228;-58
2021/12/07 08:02:43;;;;;;;1.20;0.60;;;;;;;11.25;57.36;94997.28;4369033;32;20203;-54
2021/12/07 08:05:08;;;;;;;0.73;0.67;;;;;;;11.29;57.51;95003.56;4385853;32;20188;-53
2021/12/07 08:07:35;;;;;;;1.97;1.00;;;;;;;11.39;57.21;95003.31;4384077;32;20188;-52
2021/12/07 08:10:01;;;;;;;2.37;0.80;;;;;;;11.26;56.23;95012.12;4384842;32;20203;-52
2021/12/07 08:12:26;;;;;;;0.93;0.83;;;;;;;11.30;55.72;95010.44;4382736;32;20208;-50
2021/12/07 08:14:51;;;;;;;0.70;0.70;;;;;;;11.13;56.43;95005.03;4387198;32;20188;-54
2021/12/07 08:17:17;;;;;;;0.90;0.80;;;;;;;11.05;56.39;94998.59;4385572;32;20183;-54
2021/12/07 08:19:42;;;;;;;1.50;0.90;;;;;;;10.40;58.41;95008.87;4388381;32;20243;-51
2021/12/07 08:22:07;;;;;;;1.40;0.90;;;;;;;10.37;57.38;95012.16;4381655;32;20216;-50
2021/12/07 08:24:33;;;;;;;0.77;0.77;;;;;;;10.67;57.71;95008.78;4378968;32;20201;-54
2021/12/07 08:26:58;;;;;;;2.93;1.10;;;;;;;10.82;57.19;95013.75;4387584;32;20225;-50
2021/12/07 08:29:23;;;;;;;1.30;1.10;;;;;;;10.76;55.23;95014.97;4376373;32;20208;-53
2021/12/07 08:31:49;;;;;;;1.87;1.10;;;;;;;10.73;56.63;95007.59;4383447;32;20192;-54
2021/12/07 08:34:14;;;;;;;1.40;0.87;;;;;;;10.77;61.14;95007.78;4379950;32;20223;-52
2021/12/07 08:36:40;;;;;;;2.20;1.30;;;;;;;11.76;68.75;95011.88;4379054;32;20211;-55
2021/12/07 08:39:07;;;;;;;1.30;0.97;;;;;;;10.62;61.28;95028.25;4383051;32;20192;-55
2021/12/07 08:41:32;;;;;;;0.97;0.90;;;;;;;10.62;61.20;95016.87;4383613;32;20199;-53
2021/12/07 08:43:57;;;;;;;2.47;0.63;;;;;;;11.31;58.21;95018.09;4373236;32;20192;-52
2021/12/07 08:46:23;;;;;;;1.60;1.13;;;;;;;11.17;58.54;95019.28;4385039;32;20219;-59
2021/12/07 08:48:48;;;;;;;6.80;1.40;;;;;;;8.56;59.14;95039.78;4373917;32;20263;-61
2021/12/07 08:51:15;;;;;;;2.10;1.20;;;;;;;6.85;67.73;95037.00;4382232;32;20181;-60
2021/12/07 08:53:51;;;;;;;1.80;1.20;;;;;;;6.35;71.06;95032.09;4386077;32;20248;-58
2021/12/07 08:59:45;;;;;;;1.70;1.57;;;;;;;5.57;74.98;95039.81;4371639;32;20298;-59
2021/12/07 09:01:50;;;;;;;2.70;1.30;;;;;;;5.29;75.68;95038.56;4357196;32;20284;-59
2021/12/07 09:04:17;;;;;;;2.43;1.43;;;;;;;5.26;76.56;95044.34;4383312;32;20304;-60
2021/12/07 09:06:45;;;;;;;1.57;1.40;;;;;;;5.20;77.29;95043.56;4383790;32;20281;-59
2021/12/07 09:09:10;;;;;;;4.07;1.57;;;;;;;5.50;76.43;95043.50;4381159;32;20326;-59
2021/12/07 09:11:36;;;;;;;1.47;1.30;;;;;;;5.06;76.89;95053.06;4378607;32;20280;-61
2021/12/07 09:14:01;;;;;;;2.10;1.50;;;;;;;4.76;78.02;95064.41;4379850;32;20211;-60
2021/12/07 09:16:27;;;;;;;2.40;1.77;;;;;;;4.71;79.03;95062.56;4374518;32;20185;-59
2021/12/07 09:18:52;;;;;;;3.77;1.63;;;;;;;4.36;80.63;95058.06;4379018;32;20265;-60
2021/12/07 09:21:19;;;;;;;2.50;1.50;;;;;;;4.41;81.23;95071.19;4386962;32;20185;-61
2021/12/07 09:23:44;;;;;;;2.80;1.40;;;;;;;4.31;81.30;95079.06;4383934;32;20196;-60
2021/12/07 09:26:10;;;;;;;1.00;1.00;;;;;;;4.23;81.15;95068.25;4379092;32;20312;-60
2021/12/07 09:28:36;;;;;;;2.30;1.37;;;;;;;4.29;81.64;95081.16;4384587;32;20181;-59
2021/12/07 09:31:03;;;;;;;1.60;1.07;;;;;;;4.18;82.16;95084.00;4388973;32;20252;-60
2021/12/07 09:33:30;;;;;;;4.13;1.50;;;;;;;4.19;83.39;95075.06;4382520;32;20364;-60
2021/12/07 09:35:56;;;;;;;2.27;1.33;;;;;;;3.93;84.32;95082.88;4379159;32;20280;-61
2021/12/07 09:38:23;;;;;;;1.70;1.43;;;;;;;4.14;83.22;95081.91;4376030;32;20304;-58
2021/12/07 09:40:49;;;;;;;1.43;1.33;;;;;;;3.85;84.49;95075.50;4382053;32;20203;-61
2021/12/07 09:43:15;;;;;;;3.80;1.97;;;;;;;3.95;83.73;95074.75;4378269;32;20352;-58
2021/12/07 09:45:42;;;;;;;4.17;1.43;;;;;;;3.83;83.83;95082.84;4380126;32;20287;-59
2021/12/07 09:48:11;;;;;;;1.53;1.40;;;;;;;4.01;83.77;95077.13;4386423;32;20184;-58
2021/12/07 09:50:40;;;;;;;2.87;1.57;;;;;;;3.98;83.43;95075.00;4384379;32;20300;-59
2021/12/07 09:53:07;;;;;;;2.10;1.60;;;;;;;3.95;83.61;95069.50;4388089;32;20272;-60
2021/12/07 09:55:35;;;;;;;1.33;1.17;;;;;;;3.99;83.30;95076.59;4374065;32;20351;-59
2021/12/07 09:58:01;;;;;;;1.60;1.50;;;;;;;3.84;83.72;95073.12;4386873;32;20284;-59
2021/12/07 10:00:29;;;;;;;1.57;1.40;;;;;;;3.81;84.24;95079.69;4376257;32;20303;-59
2021/12/07 10:02:55;;;;;;;1.60;1.50;;;;;;;3.96;84.13;95076.31;4381495;32;20234;-59
2021/12/07 10:05:22;;;;;;;1.87;1.50;;;;;;;3.84;83.94;95078.38;4386748;32;20301;-58
2021/12/07 10:07:50;;;;;;;1.67;1.57;;;;;;;3.82;84.38;95083.88;4388879;32;20292;-60
2021/12/07 10:10:29;;;;;;;1.90;1.80;;;;;;;3.97;84.07;95078.69;4380145;32;20279;-59
2021/12/07 10:12:55;;;;;;;1.67;1.30;;;;;;;4.07;83.92;95072.69;4383853;32;20287;-58
2021/12/07 10:15:22;;;;;;;1.93;1.53;;;;;;;4.07;83.54;95073.47;4381360;32;20330;-59
2021/12/07 10:18:05;;;;;;;6.00;1.80;;;;;;;4.37;83.03;95077.19;4372660;32;20203;-58
2021/12/07 10:20:38;;;;;;;5.27;2.00;;;;;;;4.36;82.57;95078.28;4385326;32;20363;-58
2021/12/07 10:23:25;;;;;;;4.23;1.27;;;;;;;4.44;81.10;95072.50;4377618;32;20360;-57
2021/12/07 10:25:54;;;;;;;4.50;1.87;;;;;;;4.27;81.75;95069.31;4384008;32;20317;-58
2021/12/07 10:28:42;;;;;;;2.07;0.97;;;;;;;4.24;82.06;95067.22;4380861;32;20304;-59
2021/12/07 10:31:19;;;;;;;6.00;1.63;;;;;;;4.43;80.79;95063.03;4388101;32;20284;-58
2021/12/07 10:33:53;;;;;;;2.50;1.53;;;;;;;4.31;80.46;95065.12;4383957;32;20296;-58
2021/12/07 10:36:26;;;;;;;1.70;1.27;;;;;;;4.33;81.18;95057.78;4378747;32;20280;-59
2021/12/07 10:39:14;;;;;;;1.43;1.20;;;;;;;4.36;80.46;95067.78;4385224;32;20264;-57
2021/12/07 10:42:06;;;;;;;1.33;1.23;;;;;;;4.29;80.78;95059.34;4380108;32;20269;-58
2021/12/07 10:44:34;;;;;;;1.20;1.10;;;;;;;4.61;79.06;95057.28;4396375;32;20300;-59
2021/12/07 10:47:07;;;;;;;2.33;1.40;;;;;;;4.64;78.74;95067.28;4378877;32;20286;-59
2021/12/07 10:49:37;;;;;;;1.10;1.10;;;;;;;4.62;77.97;95066.75;4383565;32;23305;-59
2021/12/07 10:52:05;;;;;;;3.70;1.20;;;;;;;4.55;78.00;95060.19;4386908;32;20351;-60
2021/12/07 10:54:38;;;;;;;3.13;1.07;;;;;;;4.81;77.18;95062.53;4376113;32;20344;-58
2021/12/07 10:57:06;;;;;;;4.33;1.60;;;;;;;4.74;77.66;95056.78;4383361;32;20376;-60
2021/12/07 10:59:33;;;;;;;23.43;13.53;;;;;;;4.83;77.48;95064.91;4379338;32;20268;-58
2021/12/07 11:02:09;;;;;;;1.47;1.20;;;;;;;4.99;76.85;95068.34;4369414;32;20328;-58
2021/12/07 11:04:34;;;;;;;1.00;1.00;;;;;;;4.97;76.44;95070.44;4381078;32;20284;-59
2021/12/07 11:07:27;;;;;;;1.17;1.07;;;;;;;5.19;75.94;95076.19;4387191;32;20295;-59
2021/12/07 11:10:06;;;;;;;5.57;1.83;;;;;;;4.98;75.79;95079.91;4370109;32;20188;-59
2021/12/07 11:13:38;;;;;;;3.13;1.30;;;;;;;4.82;77.13;95073.84;4372803;32;20280;-58
2021/12/07 11:15:48;;;;;;;1.57;1.27;;;;;;;4.89;76.32;95078.84;4375470;32;20333;-59
2021/12/07 11:18:15;;;;;;;2.13;1.30;;;;;;;5.15;76.18;95078.56;4376807;32;20333;-59
2021/12/07 11:20:41;;;;;;;2.10;1.30;;;;;;;5.03;76.18;95080.66;4381749;32;20291;-58
2021/12/07 11:23:13;;;;;;;1.10;1.00;;;;;;;5.25;75.00;95069.87;4379663;32;20280;-60
2021/12/07 11:31:40;;;;;;;2.13;1.50;;;;;;;5.27;74.80;95059.09;4378831;32;20287;-58
2021/12/07 11:34:13;;;;;;;4.03;1.23;;;;;;;5.19;75.17;95055.16;4377561;32;20280;-58
2021/12/07 11:36:47;;;;;;;2.30;1.20;;;;;;;5.08;74.86;95053.59;4380584;32;20321;-58
2021/12/07 11:39:50;;;;;;;1.43;1.20;;;;;;;5.15;75.11;95059.38;4380685;32;20351;-59
2021/12/07 11:42:23;;;;;;;1.40;1.20;;;;;;;4.98;75.18;95045.75;4374427;32;20302;-59
2021/12/07 11:44:56;;;;;;;2.57;1.50;;;;;;;5.38;73.52;95050.91;4374670;32;20354;-59
2021/12/07 11:47:31;;;;;;;3.03;1.20;;;;;;;5.38;73.33;95055.41;4376336;32;20304;-59
2021/12/07 11:49:59;;;;;;;1.47;1.20;;;;;;;5.44;73.53;95059.56;4378043;32;20342;-59
2021/12/07 11:52:24;;;;;;;1.63;1.10;;;;;;;5.55;73.77;95055.09;4378318;32;20338;-59
2021/12/07 11:54:51;;;;;;;1.63;1.30;;;;;;;5.53;72.40;95063.25;4373821;32;20281;-59
2021/12/07 11:57:18;;;;;;;2.73;2.50;;;;;;;5.20;72.81;95056.72;4375676;32;20190;-58
2021/12/07 11:59:46;;;;;;;2.33;1.23;;;;;;;5.53;72.22;95053.50;4379816;32;20316;-60
2021/12/07 12:02:11;;;;;;;5.77;1.30;;;;;;;5.41;72.80;95047.72;4378622;32;20291;-57
2021/12/07 12:04:39;;;;;;;2.10;1.47;;;;;;;5.30;74.04;95043.56;4376192;32;20277;-60
2021/12/07 12:07:08;;;;;;;5.10;1.40;;;;;;;5.33;73.48;95040.41;4376071;32;20258;-58
2021/12/07 12:09:33;;;;;;;1.30;1.20;;;;;;;5.38;73.24;95039.63;4374211;32;20383;-59
2021/12/07 12:12:30;;;;;;;3.60;1.17;;;;;;;5.37;71.87;95049.34;4370575;32;20272;-58
2021/12/07 12:15:07;;;;;;;2.73;1.40;;;;;;;5.63;72.19;95046.63;4371793;32;20310;-58
2021/12/07 12:17:53;;;;;;;1.27;0.90;;;;;;;5.63;71.13;95057.94;4372800;32;20307;-58
2021/12/07 12:20:29;;;;;;;1.10;1.00;;;;;;;5.55;70.95;95060.34;4376498;32;20291;-58
2021/12/07 12:23:02;;;;;;;1.63;1.00;;;;;;;5.42;71.46;95041.41;4373777;32;20339;-59
2021/12/07 12:25:27;;;;;;;1.70;1.10;;;;;;;5.24;71.63;95055.13;4374324;32;20280;-58
2021/12/07 12:27:55;;;;;;;3.03;1.13;;;;;;;5.44;70.97;95044.56;4380985;32;20296;-60
2021/12/07 12:30:23;;;;;;;1.03;0.90;;;;;;;5.06;71.87;95045.19;4375920;32;20200;-59
2021/12/07 12:32:53;;;;;;;2.67;1.20;;;;;;;5.05;73.65;95051.50;4375735;32;20332;-58
2021/12/07 12:35:28;;;;;;;3.80;1.13;;;;;;;5.21;72.02;95037.25;4372299;32;20284;-58
2021/12/07 12:37:53;;;;;;;1.97;1.10;;;;;;;4.88;72.96;95025.50;4378857;32;20365;-59
2021/12/07 12:40:26;;;;;;;3.00;1.47;;;;;;;5.13;73.10;95027.31;4373766;32;20323;-59
2021/12/07 12:42:55;;;;;;;1.20;1.10;;;;;;;5.15;73.87;95035.72;4379566;32;20197;-60
2021/12/07 12:45:25;;;;;;;1.53;0.90;;;;;;;5.16;73.22;95038.09;4385267;32;20276;-58
2021/12/07 12:48:07;;;;;;;2.13;1.20;;;;;;;5.30;71.76;95046.19;4374935;32;20331;-60
2021/12/07 12:50:33;;;;;;;2.40;1.27;;;;;;;5.37;71.85;95032.78;4377659;32;20284;-59
2021/12/07 12:53:03;;;;;;;1.83;1.13;;;;;;;5.38;71.95;95034.34;4384425;32;20302;-61
2021/12/07 12:55:31;;;;;;;1.40;1.10;;;;;;;5.38;71.02;95027.25;4381907;32;20255;-58
2021/12/07 12:57:56;;;;;;;1.53;1.10;;;;;;;5.53;71.55;95021.94;4391236;32;20314;-59
2021/12/07 13:00:23;;;;;;;1.73;1.30;;;;;;;5.34;71.26;95030.69;4384089;32;20320;-59
2021/12/07 13:02:53;;;;;;;2.03;1.00;;;;;;;5.38;69.78;95022.00;4381467;32;20189;-58
2021/12/07 13:05:36;;;;;;;4.93;1.20;;;;;;;5.43;70.65;95011.44;4380331;32;20295;-57
2021/12/07 13:08:18;;;;;;;1.33;1.17;;;;;;;5.52;70.02;95020.34;4372173;32;20300;-61
2021/12/07 13:10:58;;;;;;;1.53;0.90;;;;;;;5.56;69.78;95025.09;4383506;32;20355;-65
2021/12/07 13:13:25;;;;;;;3.17;0.90;;;;;;;5.64;69.35;95016.63;4377041;32;20303;-59
2021/12/07 13:15:51;;;;;;;2.97;1.33;;;;;;;5.52;69.62;95009.03;4382855;32;20333;-60
2021/12/07 13:18:21;;;;;;;3.33;1.20;;;;;;;5.35;69.96;95019.09;4383330;32;20364;-59
2021/12/07 13:20:50;;;;;;;1.40;1.20;;;;;;;5.46;70.23;95015.38;4382393;32;20184;-59
2021/12/07 13:23:16;;;;;;;3.93;1.00;;;;;;;5.49;69.36;95015.63;4379592;32;20373;-57
2021/12/07 13:25:45;;;;;;;1.70;1.10;;;;;;;5.49;68.95;95014.84;4387469;32;20348;-57
2021/12/07 13:28:11;;;;;;;1.23;0.70;;;;;;;5.59;68.81;95011.41;4374555;32;20223;-59
2021/12/07 13:30:46;;;;;;;3.43;1.07;;;;;;;5.45;68.68;95004.06;4381674;32;20296;-59
2021/12/07 13:33:39;;;;;;;1.63;1.10;;;;;;;5.48;69.02;95008.00;4377723;32;20274;-59
2021/12/07 13:36:27;;;;;;;4.30;1.20;;;;;;;5.46;68.96;95008.28;4379512;32;20347;-61